Latest Weather Observations for Tamworth Airport

IDN60801

Issued at 1:34 pm EDT Thursday 5 March 2015 (issued every 30 minutes, with the page automatically refreshed every 10 minutes)

About weather observations | Map of weather stations | Latest weather observations for NSW | Other Formats
Station Details ID: 055325 Name: TAMWORTH AIRPORT AWS Lat: -31.07 Lon: 150.84 Height: 394.9 m
Data from the previous 72 hours. | See also: Recent months at Tamworth Airport
Date/Time
EDT
Temp
°C
App
Temp
°C
Dew
Point
Rel
Hum
%
Delta-T
°C
Wind Press
QNH
hPa
Press
MSL
hPa
Rain
since 9 am
mm
Dir
 
Spd
km/h
Gust
km/h
Spd
kts
Gust
kts
05/01:30pm 30.6 23.2 -0.9 13 15.2 W 28 41 15 22 1009.6 1007.8 0.0
05/01:00pm 30.3 23.1 -2.2 12 15.3 W 26 39 14 21 1009.8 1008.0 0.0
05/12:30pm 29.7 22.4 -2.7 12 15.0 WSW 26 35 14 19 1010.1 1008.3 0.0
05/12:00pm 30.2 23.8 0.7 15 14.6 WSW 24 41 13 22 1010.4 1008.6 0.0
05/11:30am 28.8 25.1 4.3 21 12.7 SW 13 22 7 12 1010.7 1008.9 0.0
05/11:00am 28.6 23.8 4.8 22 12.5 SW 19 26 10 14 1011.0 1009.2 0.0
05/10:30am 28.2 23.0 5.7 24 11.9 WSW 22 33 12 18 1011.1 1009.3 0.0
05/10:00am 27.5 22.6 3.9 22 12.1 WSW 19 24 10 13 1010.9 1009.1 0.0
05/09:30am 26.6 21.7 5.0 25 11.2 SW 20 30 11 16 1010.8 1009.0 0.0
05/09:00am 26.2 23.8 6.8 29 10.4 WSW 9 15 5 8 1010.5 1008.7 0.0
05/08:30am 24.7 23.6 9.8 39 8.3 W 6 9 3 5 1010.4 1008.6 0.0
05/08:00am 22.1 21.6 12.6 55 5.5 NE 7 9 4 5 1009.7 1007.9 0.0
05/07:30am 21.1 22.5 14.5 66 3.9 CALM 0 6 0 3 1009.5 1007.7 0.0
05/07:00am 20.8 22.1 14.0 65 4.0 CALM 0 0 0 0 1009.2 1007.4 0.0
05/06:30am 21.4 23.1 15.3 68 3.7 CALM 0 0 0 0 1008.7 1006.9 0.0
05/06:00am 21.3 22.6 14.2 64 4.2 CALM 0 0 0 0 1008.5 1006.7 0.0
05/05:30am 21.1 22.4 14.0 64 4.2 CALM 0 0 0 0 1008.3 1006.5 0.0
05/05:00am 20.9 22.6 15.2 70 3.4 CALM 0 0 0 0 1008.2 1006.4 0.0
05/04:30am 21.2 21.5 12.1 56 5.2 N 2 7 1 4 1008.3 1006.5 0.0
05/04:00am 20.5 20.0 12.2 59 4.7 N 6 7 3 4 1008.4 1006.6 0.0
05/03:30am 20.8 20.1 10.0 50 5.9 NNE 4 7 2 4 1008.6 1006.8 0.0
05/03:00am 21.5 19.9 10.3 49 6.2 NE 9 11 5 6 1008.8 1007.0 0.0
05/02:30am 22.5 21.4 10.0 45 6.9 ESE 6 7 3 4 1009.1 1007.3 0.0
05/02:00am 21.2 21.4 10.4 50 6.0 CALM 0 0 0 0 1009.4 1007.6 0.0
05/01:30am 22.4 21.6 11.2 49 6.3 NE 6 7 3 4 1009.5 1007.7 0.0
05/01:00am 22.1 20.4 11.2 50 6.2 NNE 11 13 6 7 1009.7 1007.9 0.0
05/12:30am 22.4 21.0 10.9 48 6.5 NNW 9 11 5 6 1009.9 1008.1 0.0
05/12:00am 24.2 22.4 9.4 39 8.2 W 9 11 5 6 1009.9 1008.1 0.0
 
Date/Time
EDT
Temp
°C
App
Temp
°C
Dew
Point
Rel
Hum
%
Delta-T
°C
Wind Press
QNH
hPa
Press
MSL
hPa
Rain
since 9 am
mm
Dir
 
Spd
km/h
Gust
km/h
Spd
kts
Gust
kts
04/11:30pm 24.0 22.4 10.3 42 7.7 WNW 9 11 5 6 1009.8 1008.0 0.0
04/11:00pm 24.3 22.9 10.9 43 7.6 WNW 9 11 5 6 1009.8 1008.0 0.0
04/10:30pm 24.9 22.5 11.5 43 7.7 W 15 15 8 8 1009.7 1007.9 0.0
04/10:00pm 25.0 23.3 12.6 46 7.3 W 13 15 7 8 1009.6 1007.8 0.0
04/09:30pm 27.5 25.5 11.5 37 9.3 WSW 13 17 7 9 1009.6 1007.8 0.0
04/09:00pm 27.4 26.0 13.4 42 8.4 W 13 19 7 10 1009.3 1007.5 0.0
04/08:30pm 30.1 28.7 13.4 36 10.1 NNW 13 17 7 9 1008.9 1007.1 0.0
04/08:00pm 30.9 29.9 14.5 37 10.2 N 13 19 7 10 1008.6 1006.8 0.0
04/07:30pm 31.2 30.4 13.9 35 10.6 N 11 13 6 7 1008.5 1006.7 0.0
04/07:00pm 33.1 30.5 13.2 30 12.2 NNW 19 26 10 14 1008.5 1006.7 0.0
04/06:30pm 33.9 31.7 13.4 29 12.6 NW 17 24 9 13 1008.5 1006.7 0.0
04/06:00pm 34.5 30.6 12.2 26 13.5 NW 24 33 13 18 1008.6 1006.8 0.0
04/05:30pm 34.1 31.4 13.5 28 12.7 NW 20 32 11 17 1008.9 1007.1 0.0
04/05:00pm 34.4 31.1 12.7 27 13.3 NW 22 33 12 18 1009.1 1007.3 0.0
04/04:30pm 34.8 30.0 13.0 26 13.4 WNW 30 41 16 22 1009.3 1007.5 0.0
04/04:00pm 35.1 31.8 12.7 26 13.7 WNW 22 33 12 18 1009.6 1007.8 0.0
04/03:30pm 36.5 31.8 13.3 25 14.4 NW 30 44 16 24 1010.1 1008.3 0.0
04/03:00pm 35.2 30.0 12.8 26 13.7 WNW 32 44 17 24 1010.6 1008.8 0.0
04/02:30pm 34.3 29.0 12.6 27 13.2 NW 32 44 17 24 1010.9 1009.1 0.0
04/02:00pm 35.2 32.5 14.5 29 13.0 NNW 22 35 12 19 1011.3 1009.5 0.0
04/01:30pm 32.9 30.4 14.0 32 11.7 NNW 20 33 11 18 1011.8 1010.0 0.0
04/01:00pm 33.7 30.5 13.2 29 12.6 NW 22 37 12 20 1012.6 1010.9 0.0
04/12:30pm 32.9 29.8 13.5 30 11.9 NW 22 33 12 18 1013.3 1011.5 0.0
04/12:00pm 31.9 28.7 13.2 32 11.4 NW 22 39 12 21 1014.0 1012.2 0.0
04/11:30am 31.3 28.3 13.6 34 10.8 NNW 22 32 12 17 1014.5 1012.8 0.0
04/11:00am 30.1 27.3 14.2 38 9.8 N 22 33 12 18 1014.9 1013.2 0.0
04/10:30am 29.4 27.3 14.8 41 9.0 NNW 19 35 10 19 1015.2 1013.5 0.0
04/10:00am 28.7 26.5 15.9 45 8.0 N 22 33 12 18 1015.1 1013.4 0.0
04/09:30am 27.2 24.3 16.2 51 6.9 N 26 35 14 19 1015.0 1013.3 0.0
04/09:00am 26.2 24.4 17.0 57 5.8 N 22 32 12 17 1015.0 1013.3 0.0
04/08:30am 25.6 24.3 17.3 60 5.3 N 20 30 11 16 1014.8 1013.1 0.0
04/08:00am 25.2 24.7 17.7 63 4.8 N 17 24 9 13 1014.4 1012.6 0.0
04/07:30am 24.9 23.9 17.6 64 4.6 NNW 19 26 10 14 1013.9 1012.1 0.0
04/07:00am 23.7 24.4 17.9 70 3.7 N 11 15 6 8 1013.5 1011.7 0.0
04/06:30am 23.1 23.8 18.0 73 3.2 NNW 11 19 6 10 1013.1 1011.3 0.0
04/06:00am 21.8 23.1 17.6 77 2.6 SSE 7 11 4 6 1012.9 1011.1 0.0
04/05:30am 22.5 23.6 17.2 72 3.3 W 7 11 4 6 1012.5 1010.8 0.0
04/05:00am 22.2 23.7 18.0 77 2.7 W 7 11 4 6 1012.4 1010.7 0.0
04/04:30am 21.8 23.9 18.0 79 2.4 W 4 7 2 4 1012.3 1010.6 0.0
04/04:00am 22.1 24.9 17.9 77 2.7 CALM 0 4 0 2 1012.4 1010.7 0.0
04/03:30am 22.6 23.6 17.7 74 3.1 S 9 11 5 6 1012.4 1010.7 0.0
04/03:00am 22.6 25.2 17.5 73 3.2 CALM 0 0 0 0 1012.3 1010.6 0.0
04/02:30am 21.3 22.5 16.9 76 2.7 S 6 9 3 5 1012.5 1010.8 0.0
04/02:00am 21.5 23.3 16.5 73 3.1 E 2 7 1 4 1012.9 1011.1 0.0
04/01:30am 22.5 21.8 16.3 68 3.8 SSE 15 15 8 8 1012.8 1011.0 0.0
04/01:00am 22.3 21.8 17.0 72 3.3 SSW 15 17 8 9 1013.3 1011.5 0.0
04/12:30am 21.8 24.2 17.0 74 3.0 CALM 0 6 0 3 1013.1 1011.3 0.0
04/12:00am 22.0 24.6 17.6 76 2.8 CALM 0 0 0 0 1013.1 1011.3 0.0
 
Date/Time
EDT
Temp
°C
App
Temp
°C
Dew
Point
Rel
Hum
%
Delta-T
°C
Wind Press
QNH
hPa
Press
MSL
hPa
Rain
since 9 am
mm
Dir
 
Spd
km/h
Gust
km/h
Spd
kts
Gust
kts
03/11:30pm 22.9 25.5 17.4 71 3.5 CALM 0 0 0 0 1013.2 1011.4 0.0
03/11:00pm 24.6 26.6 16.1 59 5.3 CALM 0 0 0 0 1013.3 1011.5 0.0
03/10:30pm 25.7 27.6 15.7 54 6.2 CALM 0 0 0 0 1013.5 1011.7 0.0
03/10:00pm 25.6 27.8 16.4 56 5.7 CALM 0 0 0 0 1013.4 1011.6 0.0
03/09:30pm 26.1 28.3 16.6 55 6.0 CALM 0 0 0 0 1013.4 1011.6 0.0
03/09:00pm 26.0 28.0 16.0 54 6.2 CALM 0 0 0 0 1013.4 1011.6 0.0
03/08:30pm 27.2 29.3 16.2 51 6.9 CALM 0 0 0 0 1013.1 1011.3 0.0
03/08:00pm 27.9 30.0 16.2 49 7.4 CALM 0 0 0 0 1012.9 1011.1 0.0
03/07:30pm 28.9 29.4 15.1 43 8.6 ENE 6 7 3 4 1012.9 1011.1 0.0
03/07:00pm 31.7 32.5 12.5 31 11.6 CALM 0 0 0 0 1012.8 1011.0 0.0
03/06:30pm 32.4 33.1 12.1 29 12.2 CALM 0 6 0 3 1012.6 1010.9 0.0
03/06:00pm 32.6 32.9 12.3 29 12.2 SSW 2 13 1 7 1012.8 1011.0 0.0
03/05:30pm 33.5 33.7 13.0 29 12.5 SW 4 9 2 5 1012.8 1011.0 0.0
03/05:00pm 33.8 33.2 12.2 27 13.1 NW 7 17 4 9 1012.9 1011.1 0.0
03/04:30pm 33.5 33.1 12.5 28 12.7 WSW 6 15 3 8 1013.0 1011.2 0.0
03/04:00pm 33.3 32.5 12.9 29 12.4 WSW 9 19 5 10 1013.2 1011.4 0.0
03/03:30pm 33.2 32.5 13.3 30 12.2 WSW 9 17 5 9 1013.6 1011.8 0.0
03/03:00pm 32.7 31.7 13.4 31 11.8 WNW 11 17 6 9 1014.2 1012.4 0.0
03/02:30pm 30.6 29.8 11.1 30 11.4 W 6 20 3 11 1014.7 1013.0 0.0
03/02:00pm 32.0 31.5 12.8 31 11.6 W 7 19 4 10 1015.1 1013.4 0.0
03/01:30pm 31.0 30.0 13.3 34 10.8 W 11 19 6 10 1015.5 1013.7 0.0
03/01:00pm 29.4 28.8 12.3 34 10.2 WNW 7 15 4 8 1016.0 1014.2 0.0
03/12:30pm 28.7 27.8 11.3 34 10.2 N 7 15 4 8 1016.6 1014.8 0.0
03/12:00pm 27.4 26.5 12.6 40 8.8 WSW 9 15 5 8 1017.2 1015.5 0.0
03/11:30am 27.1 26.1 12.3 39 8.7 WNW 9 15 5 8 1017.5 1015.8 0.0
03/11:00am 25.9 24.8 12.0 42 8.1 WNW 9 15 5 8 1017.7 1016.0 0.0
03/10:30am 25.4 24.6 11.2 41 8.2 N 6 15 3 8 1017.9 1016.2 0.0
03/10:00am 23.2 22.7 10.6 45 7.1 ENE 4 11 2 6 1018.0 1016.3 0.0
03/09:30am 22.9 22.2 11.9 50 6.3 ENE 7 11 4 6 1017.8 1016.1 0.0
03/09:00am 21.4 20.6 12.8 58 5.0 SSE 9 15 5 8 1017.6 1015.9 0.0
03/08:30am 19.9 18.3 12.9 64 4.0 SE 13 15 7 8 1017.3 1015.6 0.0
03/08:00am 18.7 17.4 13.8 73 2.8 SE 13 17 7 9 1017.0 1015.3 0.0
03/07:30am 16.8 15.8 13.3 80 2.0 SSE 11 13 6 7 1016.6 1014.8 0.0
03/07:00am 15.4 14.7 13.2 87 1.2 S 9 13 5 7 1016.2 1014.4 0.0
03/06:30am 15.6 14.1 13.1 85 1.4 SSE 13 15 7 8 1015.9 1014.1 0.0
03/06:00am 15.7 14.6 13.2 85 1.4 SSE 11 11 6 6 1015.5 1013.7 0.0
03/05:30am 16.1 15.0 13.2 83 1.6 S 11 13 6 7 1015.3 1013.6 0.0
03/05:00am 16.4 14.7 13.5 83 1.7 SSE 15 15 8 8 1014.9 1013.2 0.0
03/04:30am 16.5 15.1 13.4 82 1.8 SSE 13 15 7 8 1014.9 1013.2 0.0
03/04:00am 16.5 14.3 13.4 82 1.8 SSE 17 19 9 10 1014.9 1013.2 0.0
03/03:30am 17.0 15.3 13.7 81 1.9 SSE 15 17 8 9 1015.1 1013.4 0.0
03/03:00am 17.1 15.1 13.8 81 1.9 SSE 17 19 9 10 1015.3 1013.6 0.0
03/02:30am 17.5 15.5 13.8 79 2.1 SSE 17 19 9 10 1015.8 1014.0 0.0
03/02:00am 18.0 16.0 13.9 77 2.4 SSE 17 20 9 11 1016.0 1014.2 0.0
03/01:30am 17.9 16.3 14.0 78 2.3 SSE 15 19 8 10 1016.2 1014.4 0.0
03/01:00am 18.1 16.8 13.8 76 2.5 SSE 13 17 7 9 1016.5 1014.7 0.0
03/12:30am 18.6 17.1 14.1 75 2.6 SSE 15 19 8 10 1016.5 1014.7 0.0
03/12:00am 19.0 17.5 14.1 73 2.9 SE 15 20 8 11 1016.5 1014.7 0.0
 
Date/Time
EDT
Temp
°C
App
Temp
°C
Dew
Point
Rel
Hum
%
Delta-T
°C
Wind Press
QNH
hPa
Press
MSL
hPa
Rain
since 9 am
mm
Dir
 
Spd
km/h
Gust
km/h
Spd
kts
Gust
kts
02/11:30pm 19.4 17.8 14.0 71 3.2 SSE 15 19 8 10 1016.5 1014.7 0.0
02/11:00pm 20.0 18.1 14.1 69 3.5 SE 17 22 9 12 1016.5 1014.7 0.0
02/10:30pm 20.3 18.0 14.2 68 3.6 SSE 19 24 10 13 1016.5 1014.7 0.0
02/10:00pm 20.7 18.3 14.4 67 3.7 SE 20 24 11 13 1016.3 1014.5 0.0
02/09:30pm 21.1 18.7 14.3 65 4.0 SE 20 28 11 15 1016.1 1014.3 0.0
02/09:00pm 21.7 18.8 14.1 62 4.5 SE 22 32 12 17 1015.6 1013.8 0.0
02/08:30pm 22.5 19.2 14.1 59 5.0 SE 24 32 13 17 1015.2 1013.5 0.0
02/08:00pm 23.4 20.3 14.4 57 5.4 SE 24 32 13 17 1014.8 1013.1 0.0
02/07:30pm 24.7 20.6 13.9 51 6.5 SE 28 37 15 20 1014.3 1012.5 0.0
02/07:00pm 26.5 22.2 13.3 44 7.9 SE 28 35 15 19 1013.7 1011.9 0.0
02/06:30pm 27.6 23.3 13.2 41 8.6 SE 28 37 15 20 1013.2 1011.4 0.0
02/06:00pm 28.6 24.5 13.7 40 9.0 SE 28 39 15 21 1013.0 1011.2 0.0
02/05:30pm 28.7 24.5 13.4 39 9.2 SE 28 37 15 20 1012.8 1011.0 0.0
02/05:00pm 29.1 24.4 13.3 37 9.5 SE 30 37 16 20 1012.6 1010.9 0.0
02/04:30pm 29.7 25.2 13.9 38 9.6 SE 30 39 16 21 1012.8 1011.0 0.0
02/04:00pm 29.8 25.8 14.0 38 9.7 SE 28 35 15 19 1013.1 1011.3 0.0
02/03:30pm 30.2 27.1 13.5 36 10.2 SSE 22 30 12 16 1013.3 1011.5 0.0
02/03:00pm 31.1 28.8 14.7 37 10.2 ESE 20 33 11 18 1013.5 1011.7 0.0
02/02:30pm 30.4 28.9 14.1 37 10.0 SE 15 24 8 13 1013.7 1011.9 0.0
02/02:00pm 30.1 27.9 13.4 36 10.1 ESE 17 24 9 13 1014.4 1012.6 0.0

Other Formats:

Comma delimited format used in spreadsheet applications
http://www.bom.gov.au/fwo/IDN60801/IDN60801.95762.axf

JavaScript Object Notation format (JSON) in row-major order
http://www.bom.gov.au/fwo/IDN60801/IDN60801.95762.json